sensor_id;sensor_type;location;lat;lon;timestamp;temperature;humidity
16663;DHT22;8445;51.270;9.434;2022-11-09T05:21:26;11.00;96.20
16663;DHT22;8445;51.270;9.434;2022-11-09T05:23:52;12.30;99.90
16663;DHT22;8445;51.270;9.434;2022-11-09T05:26:35;12.30;99.90
16663;DHT22;8445;51.270;9.434;2022-11-09T05:29:07;12.30;99.90
16663;DHT22;8445;51.270;9.434;2022-11-09T05:31:37;12.30;99.90
16663;DHT22;8445;51.270;9.434;2022-11-09T05:34:05;12.30;99.90
16663;DHT22;8445;51.270;9.434;2022-11-09T05:36:32;12.20;99.90
16663;DHT22;8445;51.270;9.434;2022-11-09T05:38:59;12.20;99.90
16663;DHT22;8445;51.270;9.434;2022-11-09T05:41:25;12.20;99.90
16663;DHT22;8445;51.270;9.434;2022-11-09T05:43:51;12.20;99.90
16663;DHT22;8445;51.270;9.434;2022-11-09T05:46:18;12.20;99.90
16663;DHT22;8445;51.270;9.434;2022-11-09T05:48:44;12.20;99.90
16663;DHT22;8445;51.270;9.434;2022-11-09T05:51:12;12.20;99.90
16663;DHT22;8445;51.270;9.434;2022-11-09T05:53:40;12.30;99.90
16663;DHT22;8445;51.270;9.434;2022-11-09T05:56:08;12.30;99.90
16663;DHT22;8445;51.270;9.434;2022-11-09T05:58:36;12.30;99.90
16663;DHT22;8445;51.270;9.434;2022-11-09T06:01:09;12.30;99.90
16663;DHT22;8445;51.270;9.434;2022-11-09T06:03:39;12.40;99.90
16663;DHT22;8445;51.270;9.434;2022-11-09T06:06:09;12.40;99.90
16663;DHT22;8445;51.270;9.434;2022-11-09T06:08:37;12.30;99.90
16663;DHT22;8445;51.270;9.434;2022-11-09T06:11:05;12.20;99.90
16663;DHT22;8445;51.270;9.434;2022-11-09T06:13:32;12.20;99.90
16663;DHT22;8445;51.270;9.434;2022-11-09T06:16:01;12.20;99.90
16663;DHT22;8445;51.270;9.434;2022-11-09T06:18:30;12.20;99.90
16663;DHT22;8445;51.270;9.434;2022-11-09T06:20:58;12.20;99.90
16663;DHT22;8445;51.270;9.434;2022-11-09T06:23:29;12.30;99.90
16663;DHT22;8445;51.270;9.434;2022-11-09T06:26:06;12.30;99.90
16663;DHT22;8445;51.270;9.434;2022-11-09T06:28:37;12.40;99.90
16663;DHT22;8445;51.270;9.434;2022-11-09T06:31:05;12.40;99.90
16663;DHT22;8445;51.270;9.434;2022-11-09T06:33:34;12.40;99.90
16663;DHT22;8445;51.270;9.434;2022-11-09T06:36:01;12.40;99.90
16663;DHT22;8445;51.270;9.434;2022-11-09T06:38:31;12.40;99.90
16663;DHT22;8445;51.270;9.434;2022-11-09T06:41:02;12.50;99.90
16663;DHT22;8445;51.270;9.434;2022-11-09T06:43:28;12.50;99.90
16663;DHT22;8445;51.270;9.434;2022-11-09T06:45:54;12.60;99.90
16663;DHT22;8445;51.270;9.434;2022-11-09T06:48:21;12.60;99.90
16663;DHT22;8445;51.270;9.434;2022-11-09T06:50:47;12.60;99.90
16663;DHT22;8445;51.270;9.434;2022-11-09T06:53:16;12.60;99.90
16663;DHT22;8445;51.270;9.434;2022-11-09T06:55:43;12.70;99.90
16663;DHT22;8445;51.270;9.434;2022-11-09T06:58:13;12.60;99.90
16663;DHT22;8445;51.270;9.434;2022-11-09T07:03:18;12.60;99.90
16663;DHT22;8445;51.270;9.434;2022-11-09T07:05:45;12.60;99.90
16663;DHT22;8445;51.270;9.434;2022-11-09T07:08:12;12.70;99.90
16663;DHT22;8445;51.270;9.434;2022-11-09T07:10:39;12.70;99.90
16663;DHT22;8445;51.270;9.434;2022-11-09T07:13:06;12.80;99.90
16663;DHT22;8445;51.270;9.434;2022-11-09T07:15:33;12.90;99.90
16663;DHT22;8445;51.270;9.434;2022-11-09T07:18:01;12.90;99.90
16663;DHT22;8445;51.270;9.434;2022-11-09T07:20:30;13.00;99.90
16663;DHT22;8445;51.270;9.434;2022-11-09T07:22:56;13.10;99.90
16663;DHT22;8445;51.270;9.434;2022-11-09T07:25:22;13.20;99.90
16663;DHT22;8445;51.270;9.434;2022-11-09T07:27:49;13.20;99.90
16663;DHT22;8445;51.270;9.434;2022-11-09T07:30:16;13.40;99.90
16663;DHT22;8445;51.270;9.434;2022-11-09T07:32:41;13.50;99.90
16663;DHT22;8445;51.270;9.434;2022-11-09T07:35:08;13.50;99.90
16663;DHT22;8445;51.270;9.434;2022-11-09T07:37:34;13.50;99.90
16663;DHT22;8445;51.270;9.434;2022-11-09T07:40:01;13.50;99.90
16663;DHT22;8445;51.270;9.434;2022-11-09T07:42:28;13.50;99.90
16663;DHT22;8445;51.270;9.434;2022-11-09T07:44:54;13.50;99.90
16663;DHT22;8445;51.270;9.434;2022-11-09T07:47:19;13.50;99.90
16663;DHT22;8445;51.270;9.434;2022-11-09T07:49:46;13.50;99.90
16663;DHT22;8445;51.270;9.434;2022-11-09T07:52:12;13.50;99.90
16663;DHT22;8445;51.270;9.434;2022-11-09T07:54:38;13.50;99.90
16663;DHT22;8445;51.270;9.434;2022-11-09T07:57:06;13.40;99.90
16663;DHT22;8445;51.270;9.434;2022-11-09T07:59:35;13.40;99.90
16663;DHT22;8445;51.270;9.434;2022-11-09T08:02:00;13.40;99.90
16663;DHT22;8445;51.270;9.434;2022-11-09T08:04:27;13.40;99.90
16663;DHT22;8445;51.270;9.434;2022-11-09T08:06:53;13.40;99.90
16663;DHT22;8445;51.270;9.434;2022-11-09T08:09:19;13.50;99.90
16663;DHT22;8445;51.270;9.434;2022-11-09T08:11:45;13.40;99.90
16663;DHT22;8445;51.270;9.434;2022-11-09T08:14:11;13.50;99.90
16663;DHT22;8445;51.270;9.434;2022-11-09T08:16:37;13.50;99.90
16663;DHT22;8445;51.270;9.434;2022-11-09T08:19:04;13.50;99.90
16663;DHT22;8445;51.270;9.434;2022-11-09T08:21:30;13.60;99.90
16663;DHT22;8445;51.270;9.434;2022-11-09T08:23:55;13.60;99.90
16663;DHT22;8445;51.270;9.434;2022-11-09T08:26:22;13.70;99.90
16663;DHT22;8445;51.270;9.434;2022-11-09T08:28:47;13.70;99.90
16663;DHT22;8445;51.270;9.434;2022-11-09T08:31:13;13.80;99.90
16663;DHT22;8445;51.270;9.434;2022-11-09T08:33:40;13.80;99.90
16663;DHT22;8445;51.270;9.434;2022-11-09T08:36:16;13.80;99.90
16663;DHT22;8445;51.270;9.434;2022-11-09T08:38:43;13.80;99.90
16663;DHT22;8445;51.270;9.434;2022-11-09T08:41:11;13.80;99.90
16663;DHT22;8445;51.270;9.434;2022-11-09T08:43:38;13.90;99.90
16663;DHT22;8445;51.270;9.434;2022-11-09T08:46:04;13.90;99.90
16663;DHT22;8445;51.270;9.434;2022-11-09T08:48:30;13.80;99.90
16663;DHT22;8445;51.270;9.434;2022-11-09T08:50:57;13.80;99.90
16663;DHT22;8445;51.270;9.434;2022-11-09T08:53:30;13.90;99.90
16663;DHT22;8445;51.270;9.434;2022-11-09T08:55:56;13.90;99.90
16663;DHT22;8445;51.270;9.434;2022-11-09T08:58:22;13.90;99.90
16663;DHT22;8445;51.270;9.434;2022-11-09T09:00:48;13.90;99.90
16663;DHT22;8445;51.270;9.434;2022-11-09T09:03:13;14.00;99.90
16663;DHT22;8445;51.270;9.434;2022-11-09T09:05:39;14.20;99.90
16663;DHT22;8445;51.270;9.434;2022-11-09T09:08:07;14.50;99.90
16663;DHT22;8445;51.270;9.434;2022-11-09T09:10:35;14.60;99.90
16663;DHT22;8445;51.270;9.434;2022-11-09T09:13:02;14.60;99.90
16663;DHT22;8445;51.270;9.434;2022-11-09T09:15:29;14.60;99.90
16663;DHT22;8445;51.270;9.434;2022-11-09T09:17:58;14.60;99.90
16663;DHT22;8445;51.270;9.434;2022-11-09T09:20:25;14.70;99.90
16663;DHT22;8445;51.270;9.434;2022-11-09T09:22:51;14.70;99.90
16663;DHT22;8445;51.270;9.434;2022-11-09T09:25:20;14.70;99.90
16663;DHT22;8445;51.270;9.434;2022-11-09T09:27:47;14.70;99.90
16663;DHT22;8445;51.270;9.434;2022-11-09T09:30:17;14.80;99.90
16663;DHT22;8445;51.270;9.434;2022-11-09T09:32:45;14.90;99.90
16663;DHT22;8445;51.270;9.434;2022-11-09T09:37:42;15.10;99.90
16663;DHT22;8445;51.270;9.434;2022-11-09T09:49:10;15.30;99.90
16663;DHT22;8445;51.270;9.434;2022-11-09T09:52:05;15.60;99.90
16663;DHT22;8445;51.270;9.434;2022-11-09T09:57:53;15.50;99.90
16663;DHT22;8445;51.270;9.434;2022-11-09T10:00:26;15.50;99.90
16663;DHT22;8445;51.270;9.434;2022-11-09T10:02:55;15.50;99.90
16663;DHT22;8445;51.270;9.434;2022-11-09T10:05:30;15.50;99.90
16663;DHT22;8445;51.270;9.434;2022-11-09T10:08:26;15.40;99.90
16663;DHT22;8445;51.270;9.434;2022-11-09T10:14:10;15.50;99.90
16663;DHT22;8445;51.270;9.434;2022-11-09T10:17:16;15.50;99.90
16663;DHT22;8445;51.270;9.434;2022-11-09T10:20:01;15.50;99.90
16663;DHT22;8445;51.270;9.434;2022-11-09T10:26:34;15.70;99.90
16663;DHT22;8445;51.270;9.434;2022-11-09T10:29:43;15.80;99.90
16663;DHT22;8445;51.270;9.434;2022-11-09T10:32:21;15.80;99.90
16663;DHT22;8445;51.270;9.434;2022-11-09T10:41:03;15.80;99.90
16663;DHT22;8445;51.270;9.434;2022-11-09T10:43:40;15.70;99.90
16663;DHT22;8445;51.270;9.434;2022-11-09T10:46:26;15.50;99.90
16663;DHT22;8445;51.270;9.434;2022-11-09T10:49:20;15.40;99.90
16663;DHT22;8445;51.270;9.434;2022-11-09T10:52:37;15.30;99.90
16663;DHT22;8445;51.270;9.434;2022-11-09T11:04:22;15.80;99.90
16663;DHT22;8445;51.270;9.434;2022-11-09T11:13:23;24.10;65.70
16663;DHT22;8445;51.270;9.434;2022-11-09T11:16:31;20.30;81.70
16663;DHT22;8445;51.270;9.434;2022-11-09T11:19:38;18.70;89.50
16663;DHT22;8445;51.270;9.434;2022-11-09T11:22:24;17.90;92.10
16663;DHT22;8445;51.270;9.434;2022-11-09T11:25:20;17.50;92.80
16663;DHT22;8445;51.270;9.434;2022-11-09T11:28:16;17.30;93.20
16663;DHT22;8445;51.270;9.434;2022-11-09T11:31:19;17.10;93.30
16663;DHT22;8445;51.270;9.434;2022-11-09T11:34:12;17.00;92.20
16663;DHT22;8445;51.270;9.434;2022-11-09T11:40:52;17.30;91.40
16663;DHT22;8445;51.270;9.434;2022-11-09T11:44:16;17.40;92.20
16663;DHT22;8445;51.270;9.434;2022-11-09T11:54:23;18.00;92.00
16663;DHT22;8445;51.270;9.434;2022-11-09T11:57:56;18.20;93.80
16663;DHT22;8445;51.270;9.434;2022-11-09T12:00:19;18.10;93.80
16663;DHT22;8445;51.270;9.434;2022-11-09T12:20:17;18.00;94.40
16663;DHT22;8445;51.270;9.434;2022-11-09T12:26:33;17.90;94.60
16663;DHT22;8445;51.270;9.434;2022-11-09T12:33:03;17.90;94.90
16663;DHT22;8445;51.270;9.434;2022-11-09T12:39:45;17.80;95.00
16663;DHT22;8445;51.270;9.434;2022-11-09T12:42:35;17.70;95.50
16663;DHT22;8445;51.270;9.434;2022-11-09T12:45:32;17.60;95.20
16663;DHT22;8445;51.270;9.434;2022-11-09T12:48:29;17.50;95.20
16663;DHT22;8445;51.270;9.434;2022-11-09T12:51:25;17.50;95.20
16663;DHT22;8445;51.270;9.434;2022-11-09T12:54:13;17.40;95.30
16663;DHT22;8445;51.270;9.434;2022-11-09T12:57:15;17.30;95.50
16663;DHT22;8445;51.270;9.434;2022-11-09T13:03:54;17.10;95.40
16663;DHT22;8445;51.270;9.434;2022-11-09T13:09:55;17.10;95.20
16663;DHT22;8445;51.270;9.434;2022-11-09T13:12:43;17.20;95.10
16663;DHT22;8445;51.270;9.434;2022-11-09T13:15:34;17.20;95.70
16663;DHT22;8445;51.270;9.434;2022-11-09T13:18:44;17.30;95.60
16663;DHT22;8445;51.270;9.434;2022-11-09T13:21:32;17.30;95.80
16663;DHT22;8445;51.270;9.434;2022-11-09T13:27:40;17.20;96.00
16663;DHT22;8445;51.270;9.434;2022-11-09T13:30:37;17.10;96.00
16663;DHT22;8445;51.270;9.434;2022-11-09T13:33:34;16.90;96.10
16663;DHT22;8445;51.270;9.434;2022-11-09T13:36:19;16.80;96.10
16663;DHT22;8445;51.270;9.434;2022-11-09T13:39:30;16.50;96.10
16663;DHT22;8445;51.270;9.434;2022-11-09T13:42:35;16.30;96.20
16663;DHT22;8445;51.270;9.434;2022-11-09T13:45:30;16.20;96.20
16663;DHT22;8445;51.270;9.434;2022-11-09T13:48:50;16.00;96.10
16663;DHT22;8445;51.270;9.434;2022-11-09T13:51:45;16.00;96.00
16663;DHT22;8445;51.270;9.434;2022-11-09T13:54:33;16.10;96.10
16663;DHT22;8445;51.270;9.434;2022-11-09T13:57:23;16.00;96.30
16663;DHT22;8445;51.270;9.434;2022-11-09T14:00:23;16.00;96.30
16663;DHT22;8445;51.270;9.434;2022-11-09T14:03:20;16.00;96.40
16663;DHT22;8445;51.270;9.434;2022-11-09T14:06:17;15.90;96.40
16663;DHT22;8445;51.270;9.434;2022-11-09T14:09:03;15.80;96.40
16663;DHT22;8445;51.270;9.434;2022-11-09T14:22:15;15.50;96.60
16663;DHT22;8445;51.270;9.434;2022-11-09T14:25:23;15.40;96.50
16663;DHT22;8445;51.270;9.434;2022-11-09T14:28:30;15.40;96.60
16663;DHT22;8445;51.270;9.434;2022-11-09T14:31:29;15.40;96.60
16663;DHT22;8445;51.270;9.434;2022-11-09T14:34:15;15.40;96.60
16663;DHT22;8445;51.270;9.434;2022-11-09T14:37:41;15.40;96.70
16663;DHT22;8445;51.270;9.434;2022-11-09T14:40:43;15.20;96.80
16663;DHT22;8445;51.270;9.434;2022-11-09T14:43:43;15.10;96.80
16663;DHT22;8445;51.270;9.434;2022-11-09T14:46:37;15.00;96.80
16663;DHT22;8445;51.270;9.434;2022-11-09T14:49:25;14.80;96.90
16663;DHT22;8445;51.270;9.434;2022-11-09T14:52:17;14.70;96.90
16663;DHT22;8445;51.270;9.434;2022-11-09T14:55:12;14.60;96.90
16663;DHT22;8445;51.270;9.434;2022-11-09T14:57:59;14.50;96.90
16663;DHT22;8445;51.270;9.434;2022-11-09T15:07:18;14.00;97.00
16663;DHT22;8445;51.270;9.434;2022-11-09T15:10:17;13.90;97.10
16663;DHT22;8445;51.270;9.434;2022-11-09T15:13:39;13.70;97.10
16663;DHT22;8445;51.270;9.434;2022-11-09T15:16:28;13.60;97.20
16663;DHT22;8445;51.270;9.434;2022-11-09T15:19:23;13.50;97.20
16663;DHT22;8445;51.270;9.434;2022-11-09T15:25:24;13.30;97.10
16663;DHT22;8445;51.270;9.434;2022-11-09T15:31:17;13.10;97.30
16663;DHT22;8445;51.270;9.434;2022-11-09T15:34:27;13.00;97.30
16663;DHT22;8445;51.270;9.434;2022-11-09T15:40:46;12.70;97.50
16663;DHT22;8445;51.270;9.434;2022-11-09T15:43:31;12.60;97.40
16663;DHT22;8445;51.270;9.434;2022-11-09T15:46:33;12.50;97.40
16663;DHT22;8445;51.270;9.434;2022-11-09T15:53:22;12.30;97.30
16663;DHT22;8445;51.270;9.434;2022-11-09T15:56:15;12.20;97.60
16663;DHT22;8445;51.270;9.434;2022-11-09T15:59:01;12.10;97.60
16663;DHT22;8445;51.270;9.434;2022-11-09T16:01:47;11.90;97.70
16663;DHT22;8445;51.270;9.434;2022-11-09T16:04:35;11.90;97.90
16663;DHT22;8445;51.270;9.434;2022-11-09T16:07:19;11.70;97.80
16663;DHT22;8445;51.270;9.434;2022-11-09T16:10:04;11.60;97.80
16663;DHT22;8445;51.270;9.434;2022-11-09T16:12:53;11.50;97.80
16663;DHT22;8445;51.270;9.434;2022-11-09T16:15:39;11.40;97.80
16663;DHT22;8445;51.270;9.434;2022-11-09T16:18:23;11.30;98.00
16663;DHT22;8445;51.270;9.434;2022-11-09T16:21:13;11.20;98.00
16663;DHT22;8445;51.270;9.434;2022-11-09T16:23:59;11.10;98.00
16663;DHT22;8445;51.270;9.434;2022-11-09T16:26:43;11.00;98.10
16663;DHT22;8445;51.270;9.434;2022-11-09T16:29:34;10.90;98.10
16663;DHT22;8445;51.270;9.434;2022-11-09T16:32:19;10.80;98.00
16663;DHT22;8445;51.270;9.434;2022-11-09T16:35:05;10.70;98.00
16663;DHT22;8445;51.270;9.434;2022-11-09T16:37:50;10.70;98.10
16663;DHT22;8445;51.270;9.434;2022-11-09T16:40:37;10.70;98.10
16663;DHT22;8445;51.270;9.434;2022-11-09T16:43:22;10.60;98.10
16663;DHT22;8445;51.270;9.434;2022-11-09T16:46:07;10.60;98.20
16663;DHT22;8445;51.270;9.434;2022-11-09T16:48:53;10.50;98.30
16663;DHT22;8445;51.270;9.434;2022-11-09T16:51:45;10.40;98.30
16663;DHT22;8445;51.270;9.434;2022-11-09T16:54:51;10.40;97.90
16663;DHT22;8445;51.270;9.434;2022-11-09T16:57:36;10.40;97.70
16663;DHT22;8445;51.270;9.434;2022-11-09T17:00:28;10.40;98.20
16663;DHT22;8445;51.270;9.434;2022-11-09T17:03:16;10.40;98.30
16663;DHT22;8445;51.270;9.434;2022-11-09T17:06:12;10.30;98.40
16663;DHT22;8445;51.270;9.434;2022-11-09T17:09:08;10.30;98.30
16663;DHT22;8445;51.270;9.434;2022-11-09T17:12:05;10.20;98.20
16663;DHT22;8445;51.270;9.434;2022-11-09T17:15:20;10.20;98.10
16663;DHT22;8445;51.270;9.434;2022-11-09T17:18:05;10.10;98.10
16663;DHT22;8445;51.270;9.434;2022-11-09T17:20:52;10.10;98.30
16663;DHT22;8445;51.270;9.434;2022-11-09T17:23:42;10.10;98.20
16663;DHT22;8445;51.270;9.434;2022-11-09T17:26:30;10.00;98.10
16663;DHT22;8445;51.270;9.434;2022-11-09T17:29:18;10.00;98.10
16663;DHT22;8445;51.270;9.434;2022-11-09T17:32:07;10.00;98.10
16663;DHT22;8445;51.270;9.434;2022-11-09T17:34:53;9.90;98.10
16663;DHT22;8445;51.270;9.434;2022-11-09T17:37:38;9.90;98.20
16663;DHT22;8445;51.270;9.434;2022-11-09T17:40:22;9.80;98.20
16663;DHT22;8445;51.270;9.434;2022-11-09T17:43:08;9.80;98.20
16663;DHT22;8445;51.270;9.434;2022-11-09T17:46:04;9.80;98.10
16663;DHT22;8445;51.270;9.434;2022-11-09T17:48:49;9.80;98.10
16663;DHT22;8445;51.270;9.434;2022-11-09T17:51:34;9.70;98.20
16663;DHT22;8445;51.270;9.434;2022-11-09T17:54:21;9.70;98.00
16663;DHT22;8445;51.270;9.434;2022-11-09T17:57:07;9.60;98.00
16663;DHT22;8445;51.270;9.434;2022-11-09T17:59:54;9.60;98.00
16663;DHT22;8445;51.270;9.434;2022-11-09T18:02:42;9.50;97.80
16663;DHT22;8445;51.270;9.434;2022-11-09T18:05:27;9.50;97.70
16663;DHT22;8445;51.270;9.434;2022-11-09T18:08:17;9.50;97.70
16663;DHT22;8445;51.270;9.434;2022-11-09T18:11:07;9.40;97.60
16663;DHT22;8445;51.270;9.434;2022-11-09T18:13:55;9.40;97.70
16663;DHT22;8445;51.270;9.434;2022-11-09T18:22:50;9.30;97.40
16663;DHT22;8445;51.270;9.434;2022-11-09T18:25:36;9.30;97.50
16663;DHT22;8445;51.270;9.434;2022-11-09T18:28:46;9.30;97.60
16663;DHT22;8445;51.270;9.434;2022-11-09T18:31:30;9.30;97.50
16663;DHT22;8445;51.270;9.434;2022-11-09T18:34:15;9.20;97.60
16663;DHT22;8445;51.270;9.434;2022-11-09T18:36:59;9.20;97.60
16663;DHT22;8445;51.270;9.434;2022-11-09T18:39:54;9.20;97.40
16663;DHT22;8445;51.270;9.434;2022-11-09T18:42:38;9.20;97.30
16663;DHT22;8445;51.270;9.434;2022-11-09T18:45:23;9.10;97.30
16663;DHT22;8445;51.270;9.434;2022-11-09T18:48:08;9.10;97.10
16663;DHT22;8445;51.270;9.434;2022-11-09T18:50:57;9.10;97.10
16663;DHT22;8445;51.270;9.434;2022-11-09T18:54:33;9.00;97.10
16663;DHT22;8445;51.270;9.434;2022-11-09T18:57:30;8.90;96.90
16663;DHT22;8445;51.270;9.434;2022-11-09T19:00:19;8.90;96.90
16663;DHT22;8445;51.270;9.434;2022-11-09T19:03:17;8.90;96.80
16663;DHT22;8445;51.270;9.434;2022-11-09T19:06:07;8.80;96.60
16663;DHT22;8445;51.270;9.434;2022-11-09T19:08:56;8.80;96.30
16663;DHT22;8445;51.270;9.434;2022-11-09T19:12:08;8.80;96.20
16663;DHT22;8445;51.270;9.434;2022-11-09T19:14:54;8.80;96.00
16663;DHT22;8445;51.270;9.434;2022-11-09T19:17:42;8.80;95.90
16663;DHT22;8445;51.270;9.434;2022-11-09T19:20:33;8.80;96.00
16663;DHT22;8445;51.270;9.434;2022-11-09T19:23:25;8.80;95.80
16663;DHT22;8445;51.270;9.434;2022-11-09T19:26:13;8.80;95.80
16663;DHT22;8445;51.270;9.434;2022-11-09T19:32:35;8.80;95.20
16663;DHT22;8445;51.270;9.434;2022-11-09T19:35:22;8.80;95.50
16663;DHT22;8445;51.270;9.434;2022-11-09T19:38:07;8.80;95.60
16663;DHT22;8445;51.270;9.434;2022-11-09T19:40:56;8.80;95.50
16663;DHT22;8445;51.270;9.434;2022-11-09T19:43:41;8.80;95.20
16663;DHT22;8445;51.270;9.434;2022-11-09T19:46:27;8.80;95.30
16663;DHT22;8445;51.270;9.434;2022-11-09T19:49:16;8.80;95.20
16663;DHT22;8445;51.270;9.434;2022-11-09T19:52:01;8.80;95.20
16663;DHT22;8445;51.270;9.434;2022-11-09T19:54:45;8.80;95.10
16663;DHT22;8445;51.270;9.434;2022-11-09T19:57:30;8.80;95.10
16663;DHT22;8445;51.270;9.434;2022-11-09T20:00:24;8.70;95.20
16663;DHT22;8445;51.270;9.434;2022-11-09T20:03:31;8.70;94.90
16663;DHT22;8445;51.270;9.434;2022-11-09T20:06:19;8.70;94.70
16663;DHT22;8445;51.270;9.434;2022-11-09T20:09:08;8.60;94.50
16663;DHT22;8445;51.270;9.434;2022-11-09T20:11:52;8.60;94.30
16663;DHT22;8445;51.270;9.434;2022-11-09T20:14:56;8.60;94.20
16663;DHT22;8445;51.270;9.434;2022-11-09T20:17:43;8.60;94.20
16663;DHT22;8445;51.270;9.434;2022-11-09T20:20:28;8.60;93.70
16663;DHT22;8445;51.270;9.434;2022-11-09T20:23:14;8.60;93.60
16663;DHT22;8445;51.270;9.434;2022-11-09T20:26:06;8.60;93.40
16663;DHT22;8445;51.270;9.434;2022-11-09T20:28:54;8.60;93.10
16663;DHT22;8445;51.270;9.434;2022-11-09T20:31:39;8.70;92.70
16663;DHT22;8445;51.270;9.434;2022-11-09T20:34:24;8.70;92.30
16663;DHT22;8445;51.270;9.434;2022-11-09T20:37:09;8.80;91.90
16663;DHT22;8445;51.270;9.434;2022-11-09T20:39:57;8.80;91.70
16663;DHT22;8445;51.270;9.434;2022-11-09T20:42:41;8.80;91.80
16663;DHT22;8445;51.270;9.434;2022-11-09T20:45:42;8.80;92.00
16663;DHT22;8445;51.270;9.434;2022-11-09T20:48:53;8.80;92.00
16663;DHT22;8445;51.270;9.434;2022-11-09T20:51:38;8.80;91.70
16663;DHT22;8445;51.270;9.434;2022-11-09T20:54:22;8.90;91.90
16663;DHT22;8445;51.270;9.434;2022-11-09T20:57:07;8.90;91.70
16663;DHT22;8445;51.270;9.434;2022-11-09T20:59:57;8.90;90.80
16663;DHT22;8445;51.270;9.434;2022-11-09T21:02:42;9.00;89.40
16663;DHT22;8445;51.270;9.434;2022-11-09T21:05:27;9.20;88.50
16663;DHT22;8445;51.270;9.434;2022-11-09T21:08:14;9.30;88.20
16663;DHT22;8445;51.270;9.434;2022-11-09T21:11:04;9.40;88.50
16663;DHT22;8445;51.270;9.434;2022-11-09T21:13:51;9.50;88.90
16663;DHT22;8445;51.270;9.434;2022-11-09T21:16:36;9.60;88.60
16663;DHT22;8445;51.270;9.434;2022-11-09T21:19:22;9.70;89.40
16663;DHT22;8445;51.270;9.434;2022-11-09T21:22:07;9.70;89.60
16663;DHT22;8445;51.270;9.434;2022-11-09T21:24:52;9.80;90.80
16663;DHT22;8445;51.270;9.434;2022-11-09T21:27:55;9.70;91.80
16663;DHT22;8445;51.270;9.434;2022-11-09T21:31:00;9.70;92.00
16663;DHT22;8445;51.270;9.434;2022-11-09T21:33:45;9.60;92.20
16663;DHT22;8445;51.270;9.434;2022-11-09T21:36:30;9.60;92.00
16663;DHT22;8445;51.270;9.434;2022-11-09T21:39:14;9.60;91.70
16663;DHT22;8445;51.270;9.434;2022-11-09T21:42:00;9.60;91.50
16663;DHT22;8445;51.270;9.434;2022-11-09T21:44:46;9.60;90.90
16663;DHT22;8445;51.270;9.434;2022-11-09T21:47:31;9.50;90.70
16663;DHT22;8445;51.270;9.434;2022-11-09T21:50:17;9.50;90.70
16663;DHT22;8445;51.270;9.434;2022-11-09T21:53:04;9.50;90.90
16663;DHT22;8445;51.270;9.434;2022-11-09T21:55:48;9.50;91.70
16663;DHT22;8445;51.270;9.434;2022-11-09T21:58:33;9.40;92.00
16663;DHT22;8445;51.270;9.434;2022-11-09T22:01:18;9.30;92.30
16663;DHT22;8445;51.270;9.434;2022-11-09T22:04:03;9.20;92.70
16663;DHT22;8445;51.270;9.434;2022-11-09T22:06:48;9.10;92.60
16663;DHT22;8445;51.270;9.434;2022-11-09T22:09:33;9.00;92.30
16663;DHT22;8445;51.270;9.434;2022-11-09T22:12:18;8.90;91.90
16663;DHT22;8445;51.270;9.434;2022-11-09T22:15:22;8.80;91.20
16663;DHT22;8445;51.270;9.434;2022-11-09T22:18:31;8.80;90.30
16663;DHT22;8445;51.270;9.434;2022-11-09T22:21:38;8.80;89.40
16663;DHT22;8445;51.270;9.434;2022-11-09T22:24:22;8.90;88.20
16663;DHT22;8445;51.270;9.434;2022-11-09T22:27:07;8.90;87.50
16663;DHT22;8445;51.270;9.434;2022-11-09T22:29:53;9.00;88.10
16663;DHT22;8445;51.270;9.434;2022-11-09T22:32:37;9.00;89.10
16663;DHT22;8445;51.270;9.434;2022-11-09T22:35:22;8.90;89.90
16663;DHT22;8445;51.270;9.434;2022-11-09T22:38:06;8.80;90.90
16663;DHT22;8445;51.270;9.434;2022-11-09T22:40:51;8.70;90.70
16663;DHT22;8445;51.270;9.434;2022-11-09T22:43:38;8.60;90.80
16663;DHT22;8445;51.270;9.434;2022-11-09T22:46:24;8.50;91.00
16663;DHT22;8445;51.270;9.434;2022-11-09T22:49:08;8.30;91.10
16663;DHT22;8445;51.270;9.434;2022-11-09T22:51:53;8.20;90.70
16663;DHT22;8445;51.270;9.434;2022-11-09T22:54:38;8.00;90.50
16663;DHT22;8445;51.270;9.434;2022-11-09T22:57:22;7.90;90.50
16663;DHT22;8445;51.270;9.434;2022-11-09T23:00:07;7.80;89.50
16663;DHT22;8445;51.270;9.434;2022-11-09T23:02:56;7.70;89.20
16663;DHT22;8445;51.270;9.434;2022-11-09T23:05:40;7.60;89.00
16663;DHT22;8445;51.270;9.434;2022-11-09T23:08:25;7.50;88.50
16663;DHT22;8445;51.270;9.434;2022-11-09T23:11:15;7.40;88.50
16663;DHT22;8445;51.270;9.434;2022-11-09T23:14:03;7.30;88.10
16663;DHT22;8445;51.270;9.434;2022-11-09T23:16:55;7.20;87.90
16663;DHT22;8445;51.270;9.434;2022-11-09T23:19:44;7.20;87.20
16663;DHT22;8445;51.270;9.434;2022-11-09T23:22:32;7.20;86.90
16663;DHT22;8445;51.270;9.434;2022-11-09T23:25:21;7.10;86.90
16663;DHT22;8445;51.270;9.434;2022-11-09T23:28:29;7.10;86.70
16663;DHT22;8445;51.270;9.434;2022-11-09T23:31:19;7.10;86.60
16663;DHT22;8445;51.270;9.434;2022-11-09T23:34:12;7.00;85.90
16663;DHT22;8445;51.270;9.434;2022-11-09T23:37:01;7.00;86.20
16663;DHT22;8445;51.270;9.434;2022-11-09T23:39:49;7.00;86.50
16663;DHT22;8445;51.270;9.434;2022-11-09T23:42:38;7.00;86.50
16663;DHT22;8445;51.270;9.434;2022-11-09T23:45:27;6.90;86.60
16663;DHT22;8445;51.270;9.434;2022-11-09T23:48:17;6.90;86.40
16663;DHT22;8445;51.270;9.434;2022-11-09T23:51:06;6.80;85.20
16663;DHT22;8445;51.270;9.434;2022-11-09T23:53:52;6.80;86.10
16663;DHT22;8445;51.270;9.434;2022-11-09T23:56:36;6.80;86.30
16663;DHT22;8445;51.270;9.434;2022-11-09T23:59:22;6.70;86.30
